sensor_id;sensor_type;location;lat;lon;timestamp;temperature;humidity
39017;DHT22;24784;45.582;5.276;2023-03-01T00:01:27;2.20;97.60
39017;DHT22;24784;45.582;5.276;2023-03-01T00:03:54;2.00;97.60
39017;DHT22;24784;45.582;5.276;2023-03-01T00:06:21;2.00;97.70
39017;DHT22;24784;45.582;5.276;2023-03-01T00:08:48;2.00;97.60
39017;DHT22;24784;45.582;5.276;2023-03-01T00:11:19;1.90;97.70
39017;DHT22;24784;45.582;5.276;2023-03-01T00:13:47;1.80;97.90
39017;DHT22;24784;45.582;5.276;2023-03-01T00:16:15;1.90;97.80
39017;DHT22;24784;45.582;5.276;2023-03-01T00:18:41;1.90;97.90
39017;DHT22;24784;45.582;5.276;2023-03-01T00:21:07;1.90;97.80
39017;DHT22;24784;45.582;5.276;2023-03-01T00:23:35;1.90;97.90
39017;DHT22;24784;45.582;5.276;2023-03-01T00:26:01;2.10;97.80
39017;DHT22;24784;45.582;5.276;2023-03-01T00:28:26;2.10;97.80
39017;DHT22;24784;45.582;5.276;2023-03-01T00:30:52;2.00;97.70
39017;DHT22;24784;45.582;5.276;2023-03-01T00:33:19;2.00;97.70
39017;DHT22;24784;45.582;5.276;2023-03-01T00:35:45;1.80;97.70
39017;DHT22;24784;45.582;5.276;2023-03-01T00:38:11;1.70;97.90
39017;DHT22;24784;45.582;5.276;2023-03-01T00:40:37;1.80;97.90
39017;DHT22;24784;45.582;5.276;2023-03-01T00:43:04;1.70;98.10
39017;DHT22;24784;45.582;5.276;2023-03-01T00:45:30;1.80;97.70
39017;DHT22;24784;45.582;5.276;2023-03-01T00:47:56;1.70;97.80
39017;DHT22;24784;45.582;5.276;2023-03-01T00:50:23;1.80;97.80
39017;DHT22;24784;45.582;5.276;2023-03-01T00:52:55;1.80;97.80
39017;DHT22;24784;45.582;5.276;2023-03-01T00:55:22;1.80;97.60
39017;DHT22;24784;45.582;5.276;2023-03-01T00:57:48;1.70;97.90
39017;DHT22;24784;45.582;5.276;2023-03-01T01:00:14;1.60;97.70
39017;DHT22;24784;45.582;5.276;2023-03-01T01:02:40;1.50;98.00
39017;DHT22;24784;45.582;5.276;2023-03-01T01:05:06;1.60;98.10
39017;DHT22;24784;45.582;5.276;2023-03-01T01:07:32;1.60;98.20
39017;DHT22;24784;45.582;5.276;2023-03-01T01:09:58;1.70;98.00
39017;DHT22;24784;45.582;5.276;2023-03-01T01:12:24;1.70;98.00
39017;DHT22;24784;45.582;5.276;2023-03-01T01:14:49;1.70;97.80
39017;DHT22;24784;45.582;5.276;2023-03-01T01:17:15;1.50;97.80
39017;DHT22;24784;45.582;5.276;2023-03-01T01:19:41;1.50;98.00
39017;DHT22;24784;45.582;5.276;2023-03-01T01:22:07;1.50;98.10
39017;DHT22;24784;45.582;5.276;2023-03-01T01:24:33;1.60;98.10
39017;DHT22;24784;45.582;5.276;2023-03-01T01:26:58;1.50;98.20
39017;DHT22;24784;45.582;5.276;2023-03-01T01:29:24;1.40;98.20
39017;DHT22;24784;45.582;5.276;2023-03-01T01:31:50;1.40;98.10
39017;DHT22;24784;45.582;5.276;2023-03-01T01:34:18;1.30;98.10
39017;DHT22;24784;45.582;5.276;2023-03-01T01:36:51;1.40;98.30
39017;DHT22;24784;45.582;5.276;2023-03-01T01:39:19;1.40;98.10
39017;DHT22;24784;45.582;5.276;2023-03-01T01:41:46;1.30;98.10
39017;DHT22;24784;45.582;5.276;2023-03-01T01:52:27;1.30;98.40
39017;DHT22;24784;45.582;5.276;2023-03-01T01:57:30;1.30;98.30
39017;DHT22;24784;45.582;5.276;2023-03-01T02:00:00;1.40;98.40
39017;DHT22;24784;45.582;5.276;2023-03-01T02:02:28;1.40;98.20
39017;DHT22;24784;45.582;5.276;2023-03-01T02:05:01;1.40;98.10
39017;DHT22;24784;45.582;5.276;2023-03-01T02:07:29;1.30;98.00
39017;DHT22;24784;45.582;5.276;2023-03-01T02:09:56;1.20;98.30
39017;DHT22;24784;45.582;5.276;2023-03-01T02:12:24;1.20;98.20
39017;DHT22;24784;45.582;5.276;2023-03-01T02:14:51;1.20;98.40
39017;DHT22;24784;45.582;5.276;2023-03-01T02:17:18;1.10;98.40
39017;DHT22;24784;45.582;5.276;2023-03-01T02:22:27;1.20;98.50
39017;DHT22;24784;45.582;5.276;2023-03-01T02:28:02;1.10;98.40
39017;DHT22;24784;45.582;5.276;2023-03-01T02:30:31;1.10;98.40
39017;DHT22;24784;45.582;5.276;2023-03-01T02:32:59;1.10;98.50
39017;DHT22;24784;45.582;5.276;2023-03-01T02:35:36;1.10;98.20
39017;DHT22;24784;45.582;5.276;2023-03-01T02:38:05;1.10;98.40
39017;DHT22;24784;45.582;5.276;2023-03-01T02:40:34;1.10;98.50
39017;DHT22;24784;45.582;5.276;2023-03-01T02:43:06;1.20;98.40
39017;DHT22;24784;45.582;5.276;2023-03-01T02:45:33;1.20;98.70
39017;DHT22;24784;45.582;5.276;2023-03-01T02:47:59;1.10;98.40
39017;DHT22;24784;45.582;5.276;2023-03-01T02:55:38;1.10;98.40
39017;DHT22;24784;45.582;5.276;2023-03-01T02:58:04;1.10;98.30
39017;DHT22;24784;45.582;5.276;2023-03-01T03:00:36;1.10;98.30
39017;DHT22;24784;45.582;5.276;2023-03-01T03:03:06;1.00;98.60
39017;DHT22;24784;45.582;5.276;2023-03-01T03:05:32;1.00;98.50
39017;DHT22;24784;45.582;5.276;2023-03-01T03:08:00;1.10;98.50
39017;DHT22;24784;45.582;5.276;2023-03-01T03:10:29;1.10;98.40
39017;DHT22;24784;45.582;5.276;2023-03-01T03:13:00;1.10;98.50
39017;DHT22;24784;45.582;5.276;2023-03-01T03:15:27;1.00;98.50
39017;DHT22;24784;45.582;5.276;2023-03-01T03:17:53;1.00;98.50
39017;DHT22;24784;45.582;5.276;2023-03-01T03:20:21;1.10;98.40
39017;DHT22;24784;45.582;5.276;2023-03-01T03:22:49;1.00;98.40
39017;DHT22;24784;45.582;5.276;2023-03-01T03:25:16;1.00;98.30
39017;DHT22;24784;45.582;5.276;2023-03-01T03:27:43;1.00;98.30
39017;DHT22;24784;45.582;5.276;2023-03-01T03:30:12;1.00;98.30
39017;DHT22;24784;45.582;5.276;2023-03-01T03:32:43;1.00;98.60
39017;DHT22;24784;45.582;5.276;2023-03-01T03:35:25;1.00;98.60
39017;DHT22;24784;45.582;5.276;2023-03-01T03:37:52;1.00;98.80
39017;DHT22;24784;45.582;5.276;2023-03-01T03:40:38;1.00;98.70
39017;DHT22;24784;45.582;5.276;2023-03-01T03:43:12;0.90;98.80
39017;DHT22;24784;45.582;5.276;2023-03-01T03:45:38;1.00;98.70
39017;DHT22;24784;45.582;5.276;2023-03-01T03:48:06;1.00;98.70
39017;DHT22;24784;45.582;5.276;2023-03-01T03:50:33;1.00;98.70
39017;DHT22;24784;45.582;5.276;2023-03-01T03:53:04;1.00;98.60
39017;DHT22;24784;45.582;5.276;2023-03-01T03:55:29;1.00;98.60
39017;DHT22;24784;45.582;5.276;2023-03-01T03:57:58;1.00;98.60
39017;DHT22;24784;45.582;5.276;2023-03-01T04:00:27;0.90;98.60
39017;DHT22;24784;45.582;5.276;2023-03-01T04:02:53;0.80;98.70
39017;DHT22;24784;45.582;5.276;2023-03-01T04:05:22;0.80;98.70
39017;DHT22;24784;45.582;5.276;2023-03-01T04:07:48;0.80;98.80
39017;DHT22;24784;45.582;5.276;2023-03-01T04:10:16;0.90;98.60
39017;DHT22;24784;45.582;5.276;2023-03-01T04:12:42;0.90;98.60
39017;DHT22;24784;45.582;5.276;2023-03-01T04:15:10;0.90;98.50
39017;DHT22;24784;45.582;5.276;2023-03-01T04:17:43;0.90;98.60
39017;DHT22;24784;45.582;5.276;2023-03-01T04:20:12;0.80;98.60
39017;DHT22;24784;45.582;5.276;2023-03-01T04:22:39;0.90;98.60
39017;DHT22;24784;45.582;5.276;2023-03-01T04:25:05;1.00;98.50
39017;DHT22;24784;45.582;5.276;2023-03-01T04:27:35;1.00;98.30
39017;DHT22;24784;45.582;5.276;2023-03-01T04:30:02;0.80;98.30
39017;DHT22;24784;45.582;5.276;2023-03-01T04:32:28;0.70;98.70
39017;DHT22;24784;45.582;5.276;2023-03-01T04:34:54;0.60;98.70
39017;DHT22;24784;45.582;5.276;2023-03-01T04:37:22;0.60;98.80
39017;DHT22;24784;45.582;5.276;2023-03-01T04:39:49;0.60;98.90
39017;DHT22;24784;45.582;5.276;2023-03-01T04:42:15;0.70;98.70
39017;DHT22;24784;45.582;5.276;2023-03-01T04:44:42;0.70;98.70
39017;DHT22;24784;45.582;5.276;2023-03-01T04:47:08;0.80;98.90
39017;DHT22;24784;45.582;5.276;2023-03-01T04:49:34;0.80;98.90
39017;DHT22;24784;45.582;5.276;2023-03-01T04:52:00;0.80;98.70
39017;DHT22;24784;45.582;5.276;2023-03-01T04:54:33;0.80;98.80
39017;DHT22;24784;45.582;5.276;2023-03-01T04:57:00;0.80;98.60
39017;DHT22;24784;45.582;5.276;2023-03-01T04:59:26;0.80;98.50
39017;DHT22;24784;45.582;5.276;2023-03-01T05:01:53;0.60;98.60
39017;DHT22;24784;45.582;5.276;2023-03-01T05:04:23;0.60;98.80
39017;DHT22;24784;45.582;5.276;2023-03-01T05:06:49;0.60;98.70
39017;DHT22;24784;45.582;5.276;2023-03-01T05:09:15;0.60;98.80
39017;DHT22;24784;45.582;5.276;2023-03-01T05:11:41;0.60;98.70
39017;DHT22;24784;45.582;5.276;2023-03-01T05:14:08;0.70;98.90
39017;DHT22;24784;45.582;5.276;2023-03-01T05:16:35;0.70;99.10
39017;DHT22;24784;45.582;5.276;2023-03-01T05:19:03;0.60;98.90
39017;DHT22;24784;45.582;5.276;2023-03-01T05:21:39;0.60;99.00
39017;DHT22;24784;45.582;5.276;2023-03-01T05:24:25;0.60;98.80
39017;DHT22;24784;45.582;5.276;2023-03-01T05:26:52;0.70;98.90
39017;DHT22;24784;45.582;5.276;2023-03-01T05:29:21;0.80;98.70
39017;DHT22;24784;45.582;5.276;2023-03-01T05:31:52;0.70;98.70
39017;DHT22;24784;45.582;5.276;2023-03-01T05:34:22;0.60;98.60
39017;DHT22;24784;45.582;5.276;2023-03-01T05:36:48;0.60;98.60
39017;DHT22;24784;45.582;5.276;2023-03-01T05:39:22;0.50;98.80
39017;DHT22;24784;45.582;5.276;2023-03-01T05:41:52;0.60;98.90
39017;DHT22;24784;45.582;5.276;2023-03-01T05:44:17;0.60;98.80
39017;DHT22;24784;45.582;5.276;2023-03-01T05:46:43;0.60;98.90
39017;DHT22;24784;45.582;5.276;2023-03-01T05:49:10;0.60;98.70
39017;DHT22;24784;45.582;5.276;2023-03-01T05:51:36;0.50;98.80
39017;DHT22;24784;45.582;5.276;2023-03-01T05:54:02;0.40;98.90
39017;DHT22;24784;45.582;5.276;2023-03-01T05:56:28;0.30;99.00
39017;DHT22;24784;45.582;5.276;2023-03-01T05:58:54;0.40;99.20
39017;DHT22;24784;45.582;5.276;2023-03-01T06:01:20;0.30;99.10
39017;DHT22;24784;45.582;5.276;2023-03-01T06:03:46;0.40;99.30
39017;DHT22;24784;45.582;5.276;2023-03-01T06:06:11;0.40;99.20
39017;DHT22;24784;45.582;5.276;2023-03-01T06:08:37;0.40;99.00
39017;DHT22;24784;45.582;5.276;2023-03-01T06:11:03;0.50;99.10
39017;DHT22;24784;45.582;5.276;2023-03-01T06:13:28;0.50;99.00
39017;DHT22;24784;45.582;5.276;2023-03-01T06:15:55;0.40;98.90
39017;DHT22;24784;45.582;5.276;2023-03-01T06:18:21;0.40;99.20
39017;DHT22;24784;45.582;5.276;2023-03-01T06:20:55;0.40;99.10
39017;DHT22;24784;45.582;5.276;2023-03-01T06:23:22;0.50;99.10
39017;DHT22;24784;45.582;5.276;2023-03-01T06:25:48;0.60;98.90
39017;DHT22;24784;45.582;5.276;2023-03-01T06:28:14;0.70;99.10
39017;DHT22;24784;45.582;5.276;2023-03-01T06:30:40;0.70;98.70
39017;DHT22;24784;45.582;5.276;2023-03-01T06:33:06;0.70;98.80
39017;DHT22;24784;45.582;5.276;2023-03-01T06:35:32;0.60;98.70
39017;DHT22;24784;45.582;5.276;2023-03-01T06:37:59;0.50;98.80
39017;DHT22;24784;45.582;5.276;2023-03-01T06:40:26;0.50;98.90
39017;DHT22;24784;45.582;5.276;2023-03-01T06:42:51;0.50;99.10
39017;DHT22;24784;45.582;5.276;2023-03-01T06:45:18;0.50;98.90
39017;DHT22;24784;45.582;5.276;2023-03-01T06:47:44;0.50;98.80
39017;DHT22;24784;45.582;5.276;2023-03-01T06:50:11;0.40;98.80
39017;DHT22;24784;45.582;5.276;2023-03-01T06:52:37;0.30;99.10
39017;DHT22;24784;45.582;5.276;2023-03-01T06:55:04;0.40;98.90
39017;DHT22;24784;45.582;5.276;2023-03-01T06:57:30;0.40;99.00
39017;DHT22;24784;45.582;5.276;2023-03-01T06:59:56;0.50;98.90
39017;DHT22;24784;45.582;5.276;2023-03-01T07:02:22;0.50;98.90
39017;DHT22;24784;45.582;5.276;2023-03-01T07:04:51;0.50;99.10
39017;DHT22;24784;45.582;5.276;2023-03-01T07:07:18;0.50;98.90
39017;DHT22;24784;45.582;5.276;2023-03-01T07:09:46;0.50;99.00
39017;DHT22;24784;45.582;5.276;2023-03-01T07:12:14;0.40;98.80
39017;DHT22;24784;45.582;5.276;2023-03-01T07:14:39;0.40;99.00
39017;DHT22;24784;45.582;5.276;2023-03-01T07:17:06;0.40;99.00
39017;DHT22;24784;45.582;5.276;2023-03-01T07:19:32;0.40;99.00
39017;DHT22;24784;45.582;5.276;2023-03-01T07:21:57;0.50;99.00
39017;DHT22;24784;45.582;5.276;2023-03-01T07:24:23;0.30;99.00
39017;DHT22;24784;45.582;5.276;2023-03-01T07:26:50;0.30;99.20
39017;DHT22;24784;45.582;5.276;2023-03-01T07:29:16;0.10;99.10
39017;DHT22;24784;45.582;5.276;2023-03-01T07:31:42;0.00;99.40
39017;DHT22;24784;45.582;5.276;2023-03-01T07:34:08;0.20;99.60
39017;DHT22;24784;45.582;5.276;2023-03-01T07:36:33;0.30;99.40
39017;DHT22;24784;45.582;5.276;2023-03-01T07:38:59;0.30;99.30
39017;DHT22;24784;45.582;5.276;2023-03-01T07:41:28;0.40;99.30
39017;DHT22;24784;45.582;5.276;2023-03-01T07:43:53;0.30;99.10
39017;DHT22;24784;45.582;5.276;2023-03-01T07:46:19;0.30;99.10
39017;DHT22;24784;45.582;5.276;2023-03-01T07:48:45;0.30;99.30
39017;DHT22;24784;45.582;5.276;2023-03-01T07:51:11;0.30;99.10
39017;DHT22;24784;45.582;5.276;2023-03-01T07:53:36;0.40;99.00
39017;DHT22;24784;45.582;5.276;2023-03-01T07:56:06;0.30;99.20
39017;DHT22;24784;45.582;5.276;2023-03-01T07:58:36;0.40;99.20
39017;DHT22;24784;45.582;5.276;2023-03-01T08:01:03;0.40;99.30
39017;DHT22;24784;45.582;5.276;2023-03-01T08:03:29;0.40;99.00
39017;DHT22;24784;45.582;5.276;2023-03-01T08:05:55;0.40;99.10
39017;DHT22;24784;45.582;5.276;2023-03-01T08:08:20;0.50;99.20
39017;DHT22;24784;45.582;5.276;2023-03-01T08:10:46;0.50;99.10
39017;DHT22;24784;45.582;5.276;2023-03-01T08:13:12;0.40;99.30
39017;DHT22;24784;45.582;5.276;2023-03-01T08:15:38;0.30;99.30
39017;DHT22;24784;45.582;5.276;2023-03-01T08:18:03;0.30;99.30
39017;DHT22;24784;45.582;5.276;2023-03-01T08:20:29;0.40;99.40
39017;DHT22;24784;45.582;5.276;2023-03-01T08:22:55;0.40;99.30
39017;DHT22;24784;45.582;5.276;2023-03-01T08:25:20;0.40;99.40
39017;DHT22;24784;45.582;5.276;2023-03-01T08:27:46;0.60;99.30
39017;DHT22;24784;45.582;5.276;2023-03-01T08:30:12;0.60;99.20
39017;DHT22;24784;45.582;5.276;2023-03-01T08:32:39;0.50;99.10
39017;DHT22;24784;45.582;5.276;2023-03-01T08:35:05;0.40;99.30
39017;DHT22;24784;45.582;5.276;2023-03-01T08:37:31;0.60;99.40
39017;DHT22;24784;45.582;5.276;2023-03-01T08:39:59;0.70;99.30
39017;DHT22;24784;45.582;5.276;2023-03-01T08:42:25;0.70;99.30
39017;DHT22;24784;45.582;5.276;2023-03-01T08:44:51;0.70;99.10
39017;DHT22;24784;45.582;5.276;2023-03-01T08:47:17;0.70;99.50
39017;DHT22;24784;45.582;5.276;2023-03-01T08:49:43;0.60;99.00
39017;DHT22;24784;45.582;5.276;2023-03-01T08:52:08;0.70;99.30
39017;DHT22;24784;45.582;5.276;2023-03-01T08:54:34;0.60;99.10
39017;DHT22;24784;45.582;5.276;2023-03-01T08:57:03;0.70;99.30
39017;DHT22;24784;45.582;5.276;2023-03-01T08:59:29;0.70;99.00
39017;DHT22;24784;45.582;5.276;2023-03-01T09:01:55;0.70;99.20
39017;DHT22;24784;45.582;5.276;2023-03-01T09:04:21;0.80;99.00
39017;DHT22;24784;45.582;5.276;2023-03-01T09:06:47;0.90;98.90
39017;DHT22;24784;45.582;5.276;2023-03-01T09:09:17;1.00;99.00
39017;DHT22;24784;45.582;5.276;2023-03-01T09:11:44;1.00;98.50
39017;DHT22;24784;45.582;5.276;2023-03-01T09:14:12;1.00;98.90
39017;DHT22;24784;45.582;5.276;2023-03-01T09:16:38;1.00;98.60
39017;DHT22;24784;45.582;5.276;2023-03-01T09:19:05;0.90;98.80
39017;DHT22;24784;45.582;5.276;2023-03-01T09:21:31;0.90;98.90
39017;DHT22;24784;45.582;5.276;2023-03-01T09:23:57;1.10;99.00
39017;DHT22;24784;45.582;5.276;2023-03-01T09:26:24;1.20;98.70
39017;DHT22;24784;45.582;5.276;2023-03-01T09:28:53;1.30;98.60
39017;DHT22;24784;45.582;5.276;2023-03-01T09:31:21;1.30;98.70
39017;DHT22;24784;45.582;5.276;2023-03-01T09:33:49;1.40;98.90
39017;DHT22;24784;45.582;5.276;2023-03-01T09:36:18;1.40;98.60
39017;DHT22;24784;45.582;5.276;2023-03-01T09:38:57;1.40;98.40
39017;DHT22;24784;45.582;5.276;2023-03-01T09:44:30;1.60;98.40
39017;DHT22;24784;45.582;5.276;2023-03-01T09:46:57;1.60;98.20
39017;DHT22;24784;45.582;5.276;2023-03-01T09:49:31;1.50;98.20
39017;DHT22;24784;45.582;5.276;2023-03-01T09:52:21;1.40;98.20
39017;DHT22;24784;45.582;5.276;2023-03-01T09:54:54;1.50;98.20
39017;DHT22;24784;45.582;5.276;2023-03-01T10:08:55;1.50;98.30
39017;DHT22;24784;45.582;5.276;2023-03-01T10:11:45;1.60;98.40
39017;DHT22;24784;45.582;5.276;2023-03-01T10:22:38;2.00;98.00
39017;DHT22;24784;45.582;5.276;2023-03-01T10:25:04;1.80;97.90
39017;DHT22;24784;45.582;5.276;2023-03-01T10:27:53;1.80;97.70
39017;DHT22;24784;45.582;5.276;2023-03-01T10:30:40;1.70;98.10
39017;DHT22;24784;45.582;5.276;2023-03-01T10:33:17;2.00;98.10
39017;DHT22;24784;45.582;5.276;2023-03-01T10:35:45;2.10;97.90
39017;DHT22;24784;45.582;5.276;2023-03-01T10:38:12;2.20;97.80
39017;DHT22;24784;45.582;5.276;2023-03-01T10:46:30;2.20;97.60
39017;DHT22;24784;45.582;5.276;2023-03-01T10:49:19;2.30;97.70
39017;DHT22;24784;45.582;5.276;2023-03-01T10:51:50;2.40;97.70
39017;DHT22;24784;45.582;5.276;2023-03-01T10:54:28;2.30;97.40
39017;DHT22;24784;45.582;5.276;2023-03-01T10:56:56;2.30;97.60
39017;DHT22;24784;45.582;5.276;2023-03-01T10:59:30;2.50;97.40
39017;DHT22;24784;45.582;5.276;2023-03-01T11:04:34;2.30;97.00
39017;DHT22;24784;45.582;5.276;2023-03-01T11:07:01;2.30;97.60
39017;DHT22;24784;45.582;5.276;2023-03-01T11:09:31;2.40;97.30
39017;DHT22;24784;45.582;5.276;2023-03-01T11:12:11;2.50;97.00
39017;DHT22;24784;45.582;5.276;2023-03-01T11:14:39;2.50;97.10
39017;DHT22;24784;45.582;5.276;2023-03-01T11:17:12;2.60;96.90
39017;DHT22;24784;45.582;5.276;2023-03-01T11:19:40;2.40;96.90
39017;DHT22;24784;45.582;5.276;2023-03-01T11:22:20;2.60;97.30
39017;DHT22;24784;45.582;5.276;2023-03-01T11:24:50;2.50;96.80
39017;DHT22;24784;45.582;5.276;2023-03-01T11:27:21;2.40;97.00
39017;DHT22;24784;45.582;5.276;2023-03-01T11:33:10;2.60;97.20
39017;DHT22;24784;45.582;5.276;2023-03-01T11:35:42;2.80;97.00
39017;DHT22;24784;45.582;5.276;2023-03-01T11:40:54;3.00;96.60
39017;DHT22;24784;45.582;5.276;2023-03-01T11:44:03;3.20;96.70
39017;DHT22;24784;45.582;5.276;2023-03-01T11:54:26;3.40;96.50
39017;DHT22;24784;45.582;5.276;2023-03-01T11:57:01;3.50;96.30
39017;DHT22;24784;45.582;5.276;2023-03-01T11:59:57;3.60;96.10
39017;DHT22;24784;45.582;5.276;2023-03-01T12:10:23;3.70;95.90
39017;DHT22;24784;45.582;5.276;2023-03-01T12:13:41;3.70;95.60
39017;DHT22;24784;45.582;5.276;2023-03-01T12:19:07;3.70;95.40
39017;DHT22;24784;45.582;5.276;2023-03-01T12:21:56;3.70;95.30
39017;DHT22;24784;45.582;5.276;2023-03-01T12:48:24;3.50;96.00
39017;DHT22;24784;45.582;5.276;2023-03-01T12:50:54;3.70;95.90
39017;DHT22;24784;45.582;5.276;2023-03-01T12:55:51;3.80;95.50
39017;DHT22;24784;45.582;5.276;2023-03-01T13:01:31;3.80;95.50
39017;DHT22;24784;45.582;5.276;2023-03-01T13:04:16;3.60;95.50
39017;DHT22;24784;45.582;5.276;2023-03-01T13:09:51;3.60;95.90
39017;DHT22;24784;45.582;5.276;2023-03-01T13:12:43;3.50;95.70
39017;DHT22;24784;45.582;5.276;2023-03-01T13:17:58;3.80;96.10
39017;DHT22;24784;45.582;5.276;2023-03-01T13:20:54;4.00;95.90
39017;DHT22;24784;45.582;5.276;2023-03-01T13:26:05;3.80;95.80
39017;DHT22;24784;45.582;5.276;2023-03-01T13:31:08;3.90;95.70
39017;DHT22;24784;45.582;5.276;2023-03-01T13:41:53;3.90;95.90
39017;DHT22;24784;45.582;5.276;2023-03-01T13:46:45;4.20;96.00
39017;DHT22;24784;45.582;5.276;2023-03-01T13:49:16;4.20;95.70
39017;DHT22;24784;45.582;5.276;2023-03-01T13:51:47;4.00;95.80
39017;DHT22;24784;45.582;5.276;2023-03-01T13:54:14;4.00;95.80
39017;DHT22;24784;45.582;5.276;2023-03-01T13:56:41;3.90;95.90
39017;DHT22;24784;45.582;5.276;2023-03-01T13:59:16;3.80;95.80
39017;DHT22;24784;45.582;5.276;2023-03-01T14:01:42;3.90;96.00
39017;DHT22;24784;45.582;5.276;2023-03-01T14:04:41;3.80;96.10
39017;DHT22;24784;45.582;5.276;2023-03-01T14:07:21;3.80;96.30
39017;DHT22;24784;45.582;5.276;2023-03-01T14:09:51;4.00;96.30
39017;DHT22;24784;45.582;5.276;2023-03-01T14:12:43;4.20;96.00
39017;DHT22;24784;45.582;5.276;2023-03-01T14:15:19;4.10;95.80
39017;DHT22;24784;45.582;5.276;2023-03-01T14:20:27;4.40;95.90
39017;DHT22;24784;45.582;5.276;2023-03-01T14:22:59;4.20;95.60
39017;DHT22;24784;45.582;5.276;2023-03-01T14:25:32;4.00;95.40
39017;DHT22;24784;45.582;5.276;2023-03-01T14:30:38;4.20;95.70
39017;DHT22;24784;45.582;5.276;2023-03-01T14:33:06;4.20;95.80
39017;DHT22;24784;45.582;5.276;2023-03-01T14:35:34;4.30;95.50
39017;DHT22;24784;45.582;5.276;2023-03-01T14:38:01;4.30;95.60
39017;DHT22;24784;45.582;5.276;2023-03-01T14:40:35;4.20;96.00
39017;DHT22;24784;45.582;5.276;2023-03-01T14:43:09;4.30;96.00
39017;DHT22;24784;45.582;5.276;2023-03-01T14:45:36;4.30;95.90
39017;DHT22;24784;45.582;5.276;2023-03-01T14:48:04;4.40;96.10
39017;DHT22;24784;45.582;5.276;2023-03-01T14:50:40;4.40;95.90
39017;DHT22;24784;45.582;5.276;2023-03-01T14:53:11;4.40;95.90
39017;DHT22;24784;45.582;5.276;2023-03-01T14:55:41;4.40;96.00
39017;DHT22;24784;45.582;5.276;2023-03-01T14:58:15;4.60;95.60
39017;DHT22;24784;45.582;5.276;2023-03-01T15:00:56;4.50;95.80
39017;DHT22;24784;45.582;5.276;2023-03-01T15:03:33;4.50;95.80
39017;DHT22;24784;45.582;5.276;2023-03-01T15:06:03;4.30;95.60
39017;DHT22;24784;45.582;5.276;2023-03-01T15:08:31;4.30;95.80
39017;DHT22;24784;45.582;5.276;2023-03-01T15:11:28;4.30;95.90
39017;DHT22;24784;45.582;5.276;2023-03-01T15:13:54;4.20;95.70
39017;DHT22;24784;45.582;5.276;2023-03-01T15:16:27;4.10;95.70
39017;DHT22;24784;45.582;5.276;2023-03-01T15:18:58;4.10;95.70
39017;DHT22;24784;45.582;5.276;2023-03-01T15:21:34;4.20;96.00
39017;DHT22;24784;45.582;5.276;2023-03-01T15:26:54;4.40;95.90
39017;DHT22;24784;45.582;5.276;2023-03-01T15:29:22;4.50;96.00
39017;DHT22;24784;45.582;5.276;2023-03-01T15:32:25;4.50;95.90
39017;DHT22;24784;45.582;5.276;2023-03-01T15:34:51;4.40;95.80
39017;DHT22;24784;45.582;5.276;2023-03-01T15:37:46;4.40;95.90
39017;DHT22;24784;45.582;5.276;2023-03-01T15:42:45;4.40;96.00
39017;DHT22;24784;45.582;5.276;2023-03-01T15:45:23;4.40;96.10
39017;DHT22;24784;45.582;5.276;2023-03-01T15:47:57;4.20;95.80
39017;DHT22;24784;45.582;5.276;2023-03-01T15:50:28;4.20;95.90
39017;DHT22;24784;45.582;5.276;2023-03-01T15:52:55;4.20;96.10
39017;DHT22;24784;45.582;5.276;2023-03-01T15:55:27;4.30;96.00
39017;DHT22;24784;45.582;5.276;2023-03-01T16:00:26;4.20;96.10
39017;DHT22;24784;45.582;5.276;2023-03-01T16:02:52;4.20;96.40
39017;DHT22;24784;45.582;5.276;2023-03-01T16:05:23;4.20;96.10
39017;DHT22;24784;45.582;5.276;2023-03-01T16:07:49;4.10;96.50
39017;DHT22;24784;45.582;5.276;2023-03-01T16:10:15;4.00;96.50
39017;DHT22;24784;45.582;5.276;2023-03-01T16:12:41;4.10;96.70
39017;DHT22;24784;45.582;5.276;2023-03-01T16:15:33;4.10;96.70
39017;DHT22;24784;45.582;5.276;2023-03-01T16:18:02;4.00;96.30
39017;DHT22;24784;45.582;5.276;2023-03-01T16:20:29;3.90;96.50
39017;DHT22;24784;45.582;5.276;2023-03-01T16:23:01;3.80;96.70
39017;DHT22;24784;45.582;5.276;2023-03-01T16:25:27;3.90;96.80
39017;DHT22;24784;45.582;5.276;2023-03-01T16:27:54;3.80;96.70
39017;DHT22;24784;45.582;5.276;2023-03-01T16:30:22;3.80;96.70
39017;DHT22;24784;45.582;5.276;2023-03-01T16:32:48;3.80;96.90
39017;DHT22;24784;45.582;5.276;2023-03-01T16:35:17;3.90;97.10
39017;DHT22;24784;45.582;5.276;2023-03-01T16:37:43;3.90;96.90
39017;DHT22;24784;45.582;5.276;2023-03-01T16:40:26;3.90;96.90
39017;DHT22;24784;45.582;5.276;2023-03-01T16:42:53;3.80;97.00
39017;DHT22;24784;45.582;5.276;2023-03-01T16:45:20;3.80;97.00
39017;DHT22;24784;45.582;5.276;2023-03-01T16:47:46;3.80;97.30
39017;DHT22;24784;45.582;5.276;2023-03-01T16:50:12;3.80;97.40
39017;DHT22;24784;45.582;5.276;2023-03-01T16:52:38;3.80;97.30
39017;DHT22;24784;45.582;5.276;2023-03-01T16:55:05;3.80;97.30
39017;DHT22;24784;45.582;5.276;2023-03-01T16:57:33;3.80;97.30
39017;DHT22;24784;45.582;5.276;2023-03-01T16:59:59;3.70;97.20
39017;DHT22;24784;45.582;5.276;2023-03-01T17:02:25;3.70;97.30
39017;DHT22;24784;45.582;5.276;2023-03-01T17:04:55;3.70;97.60
39017;DHT22;24784;45.582;5.276;2023-03-01T17:07:21;3.80;97.50
39017;DHT22;24784;45.582;5.276;2023-03-01T17:09:47;3.80;97.50
39017;DHT22;24784;45.582;5.276;2023-03-01T17:12:13;3.80;97.60
39017;DHT22;24784;45.582;5.276;2023-03-01T17:14:40;3.80;97.30
39017;DHT22;24784;45.582;5.276;2023-03-01T17:17:10;3.80;97.40
39017;DHT22;24784;45.582;5.276;2023-03-01T17:19:37;3.70;97.50
39017;DHT22;24784;45.582;5.276;2023-03-01T17:22:09;3.70;97.40
39017;DHT22;24784;45.582;5.276;2023-03-01T17:24:37;3.70;97.70
39017;DHT22;24784;45.582;5.276;2023-03-01T17:27:04;3.70;97.50
39017;DHT22;24784;45.582;5.276;2023-03-01T17:29:30;3.70;98.00
39017;DHT22;24784;45.582;5.276;2023-03-01T17:31:56;3.70;97.90
39017;DHT22;24784;45.582;5.276;2023-03-01T17:34:22;3.60;97.90
39017;DHT22;24784;45.582;5.276;2023-03-01T17:36:48;3.60;98.10
39017;DHT22;24784;45.582;5.276;2023-03-01T17:39:15;3.60;97.90
39017;DHT22;24784;45.582;5.276;2023-03-01T17:41:42;3.60;98.10
39017;DHT22;24784;45.582;5.276;2023-03-01T17:44:07;3.50;98.30
39017;DHT22;24784;45.582;5.276;2023-03-01T17:46:33;3.50;98.30
39017;DHT22;24784;45.582;5.276;2023-03-01T17:48:59;3.40;98.40
39017;DHT22;24784;45.582;5.276;2023-03-01T17:51:25;3.50;98.80
39017;DHT22;24784;45.582;5.276;2023-03-01T17:53:50;3.50;99.20
39017;DHT22;24784;45.582;5.276;2023-03-01T17:56:16;3.40;99.20
39017;DHT22;24784;45.582;5.276;2023-03-01T17:58:42;3.40;98.90
39017;DHT22;24784;45.582;5.276;2023-03-01T18:01:13;3.40;98.50
39017;DHT22;24784;45.582;5.276;2023-03-01T18:03:40;3.40;98.50
39017;DHT22;24784;45.582;5.276;2023-03-01T18:06:21;3.40;99.20
39017;DHT22;24784;45.582;5.276;2023-03-01T18:08:47;3.40;99.30
39017;DHT22;24784;45.582;5.276;2023-03-01T18:11:18;3.40;99.60
39017;DHT22;24784;45.582;5.276;2023-03-01T18:13:44;3.40;99.70
39017;DHT22;24784;45.582;5.276;2023-03-01T18:16:15;3.40;99.90
39017;DHT22;24784;45.582;5.276;2023-03-01T18:18:41;3.30;99.80
39017;DHT22;24784;45.582;5.276;2023-03-01T18:21:09;3.30;99.90